Terminal Aerodrome Forecast
Issued by NWS

Home | Current Version | Previous Version | Text Only | Print | Product List | Glossary On
Versions: 1 2 3 4 5 6 7 8 9 10 11 12 13 14
000
FTAK31 PANC 221251 AAA
TAFAGK
TAF AMD
PAGK 221251Z 2213/2312 VRB02KT P6SM BKN015 OVC100
     FM221600 VRB03KT P6SM SCT015 BKN100
     FM222100 35005KT P6SM FEW100=

USA.gov is the U.S. government's official web portal to all federal, state and local government web resources and services.